Time;durP1;ratioP1;P1;durP2;ratioP2;P2;SDS_P1;SDS_P2;PMS_P1;PMS_P2;Temp;Humidity;BMP_temperature;BMP_pressure;BME280_temperature;BME280_humidity;BME280_pressure;Samples;Min_cycle;Max_cycle;Signal;HPM_P1;HPM_P2
2021/10/31 00:10:26;;;;;;;4.85;2.40;;;;;;;17.81;74.51;100583.75;4829581;29;20045;-84
2021/10/31 00:13:23;;;;;;;3.63;2.58;;;;;;;17.82;74.70;100585.53;4841800;29;20038;-83
2021/10/31 00:16:03;;;;;;;4.95;2.90;;;;;;;17.83;74.40;100593.31;4836588;29;20115;-83
2021/10/31 00:21:59;;;;;;;4.07;2.42;;;;;;;17.82;74.53;100594.19;4884391;29;20045;-84
2021/10/31 00:28:24;;;;;;;4.70;2.70;;;;;;;17.82;74.66;100599.41;4883654;29;20053;-84
2021/10/31 00:34:32;;;;;;;4.47;2.58;;;;;;;17.81;74.41;100596.78;4869239;29;20024;-84
2021/10/31 00:37:01;;;;;;;5.22;2.47;;;;;;;17.80;74.59;100597.66;4865333;29;20057;-84
2021/10/31 00:43:36;;;;;;;3.05;2.00;;;;;;;17.81;74.83;100592.44;4883668;29;20057;-84
2021/10/31 00:49:44;;;;;;;3.85;2.40;;;;;;;17.81;74.65;100601.97;4845434;29;20068;-84
2021/10/31 00:52:11;;;;;;;3.20;2.03;;;;;;;17.80;74.73;100600.28;4845886;29;20031;-83
2021/10/31 00:54:46;;;;;;;3.58;2.17;;;;;;;17.79;74.48;100611.53;4828365;29;20034;-83
2021/10/31 00:57:49;;;;;;;4.25;2.28;;;;;;;17.80;74.66;100619.34;4830993;29;20056;-84
2021/10/31 01:03:44;;;;;;;3.50;2.05;;;;;;;17.78;74.45;100621.09;4847583;29;20055;-83
2021/10/31 01:10:25;;;;;;;3.22;2.20;;;;;;;17.78;74.44;100623.72;4847806;29;20026;-83
2021/10/31 01:13:29;;;;;;;3.45;1.90;;;;;;;17.78;74.86;100623.72;4847147;29;20027;-83
2021/10/31 01:16:43;;;;;;;2.83;1.92;;;;;;;17.78;74.42;100625.47;4868528;29;20033;-84
2021/10/31 01:19:41;;;;;;;4.05;2.10;;;;;;;17.79;74.43;100621.97;4845810;29;20066;-83
2021/10/31 01:26:07;;;;;;;5.90;2.10;;;;;;;17.77;74.54;100618.50;4847098;29;20095;-83
2021/10/31 01:39:28;;;;;;;4.10;2.10;;;;;;;17.77;74.62;100613.31;4821279;29;20066;-84
2021/10/31 01:46:13;;;;;;;3.15;1.90;;;;;;;17.75;74.34;100600.34;4810865;29;20030;-82
2021/10/31 01:58:04;;;;;;;2.95;1.75;;;;;;;17.74;74.47;100602.94;5559550;23;20064;-83
2021/10/31 02:00:32;;;;;;;3.33;1.77;;;;;;;17.74;74.41;100606.41;4906187;29;20012;-83
2021/10/31 02:03:02;;;;;;;3.47;1.83;;;;;;;17.75;74.47;100605.53;4906281;29;20009;-83
2021/10/31 02:05:31;;;;;;;4.13;1.90;;;;;;;17.73;74.45;100601.25;5269841;23;20040;-85
2021/10/31 02:08:03;;;;;;;3.38;1.80;;;;;;;17.75;74.64;100609.91;4901368;29;20016;-83
2021/10/31 02:10:32;;;;;;;3.10;1.75;;;;;;;17.74;74.69;100605.56;4900164;29;20061;-83
2021/10/31 02:12:57;;;;;;;2.58;1.80;;;;;;;17.74;74.63;100605.56;4903012;29;20037;-86
2021/10/31 02:15:24;;;;;;;2.70;1.50;;;;;;;17.75;74.56;100602.09;4903265;29;20035;-84
2021/10/31 02:17:53;;;;;;;2.97;1.67;;;;;;;17.74;74.63;100603.81;4905633;29;20013;-83
2021/10/31 02:20:20;;;;;;;4.07;1.55;;;;;;;17.74;74.49;100601.19;4905857;29;20043;-83
2021/10/31 02:22:52;;;;;;;3.90;1.80;;;;;;;17.74;74.72;100603.81;4904954;29;20463;-85
2021/10/31 02:25:17;;;;;;;2.90;1.70;;;;;;;17.74;74.71;100603.81;4905126;29;20028;-84
2021/10/31 02:27:45;;;;;;;3.33;1.60;;;;;;;17.76;74.75;100606.41;4905469;29;20061;-84
2021/10/31 02:30:11;;;;;;;3.53;1.90;;;;;;;17.74;74.32;100600.34;4873522;29;20029;-83
2021/10/31 02:32:37;;;;;;;2.35;1.55;;;;;;;17.73;74.34;100604.69;4904869;29;20029;-84
2021/10/31 02:35:08;;;;;;;2.83;1.70;;;;;;;17.75;74.87;100608.16;4905474;29;20057;-84
2021/10/31 02:37:34;;;;;;;2.28;1.50;;;;;;;17.75;74.39;100605.53;4905111;29;20021;-85
2021/10/31 02:40:00;;;;;;;2.28;1.60;;;;;;;17.75;74.55;100612.50;4905645;29;20034;-82
2021/10/31 02:42:26;;;;;;;2.13;1.58;;;;;;;17.73;74.50;100602.09;4905811;29;20013;-83
2021/10/31 02:44:51;;;;;;;2.47;1.48;;;;;;;17.74;74.55;100601.19;4905410;29;20048;-83
2021/10/31 02:47:41;;;;;;;3.03;1.33;;;;;;;17.74;74.52;100598.59;4905521;29;20017;-83
2021/10/31 02:50:10;;;;;;;2.30;1.30;;;;;;;17.73;74.59;100593.44;4904820;29;20081;-84
2021/10/31 02:52:52;;;;;;;3.10;1.73;;;;;;;17.74;74.41;100597.75;4905317;29;20028;-84
2021/10/31 02:55:29;;;;;;;1.83;1.20;;;;;;;17.75;74.45;100589.94;4905242;29;20041;-83
2021/10/31 02:58:19;;;;;;;2.30;1.65;;;;;;;17.75;74.52;100596.88;4905304;29;20100;-84
2021/10/31 03:00:46;;;;;;;2.45;1.60;;;;;;;17.76;74.45;100596.00;4904317;29;20017;-83
2021/10/31 03:03:12;;;;;;;1.98;1.20;;;;;;;17.74;74.48;100582.13;4903594;29;20026;-83
2021/10/31 03:10:53;;;;;;;2.25;1.45;;;;;;;17.73;74.32;100586.47;5416347;23;20090;-84
2021/10/31 03:13:20;;;;;;;2.75;1.50;;;;;;;17.72;74.37;100592.56;4908421;29;20041;-84
2021/10/31 03:15:46;;;;;;;2.08;1.30;;;;;;;17.71;74.36;100579.59;4877273;29;20036;-83
2021/10/31 03:18:12;;;;;;;2.55;1.40;;;;;;;17.68;74.16;100578.75;4892325;29;20017;-85
2021/10/31 03:20:37;;;;;;;3.42;1.50;;;;;;;17.71;74.28;100590.00;4908251;29;20041;-84
2021/10/31 03:23:03;;;;;;;2.17;1.40;;;;;;;17.70;74.30;100589.09;4877108;29;20045;-84
2021/10/31 03:25:28;;;;;;;1.77;1.17;;;;;;;17.71;74.39;100593.44;4908211;29;20052;-85
2021/10/31 03:27:54;;;;;;;1.88;1.27;;;;;;;17.72;74.24;100595.16;5369805;23;20108;-85
2021/10/31 03:30:20;;;;;;;1.67;1.30;;;;;;;17.71;74.30;100584.78;4904167;29;20013;-85
2021/10/31 03:35:21;;;;;;;2.42;1.35;;;;;;;17.69;74.20;100584.81;5378311;23;20048;-86
2021/10/31 03:37:46;;;;;;;2.25;1.35;;;;;;;17.70;74.51;100586.50;4924066;29;20047;-85
2021/10/31 03:40:12;;;;;;;2.08;1.10;;;;;;;17.68;74.25;100581.34;4907723;29;20029;-85
2021/10/31 03:42:38;;;;;;;3.05;1.50;;;;;;;17.69;74.39;100587.41;4907671;29;20029;-85
2021/10/31 03:45:09;;;;;;;2.10;1.40;;;;;;;17.69;74.25;100577.84;4923454;29;20033;-83
2021/10/31 03:47:35;;;;;;;2.90;1.60;;;;;;;17.70;74.26;100581.31;4907576;29;20025;-84
2021/10/31 03:50:01;;;;;;;2.17;1.30;;;;;;;17.69;74.21;100577.84;4892111;29;20056;-84
2021/10/31 04:08:44;;;;;;;2.92;1.27;;;;;;;17.67;74.26;100558.78;5017904;23;20076;-84
2021/10/31 04:11:09;;;;;;;1.50;1.10;;;;;;;17.67;74.05;100560.53;4922495;29;20019;-84
2021/10/31 04:18:45;;;;;;;2.92;1.38;;;;;;;17.65;74.12;100572.72;5681349;23;20076;-83
2021/10/31 04:21:11;;;;;;;2.30;1.50;;;;;;;17.66;74.04;100566.66;4891777;29;20040;-83
2021/10/31 04:23:36;;;;;;;2.10;1.30;;;;;;;17.66;74.28;100557.09;4907081;29;20037;-83
2021/10/31 04:26:02;;;;;;;2.63;1.30;;;;;;;17.67;74.06;100557.94;4891500;29;20084;-84
2021/10/31 04:28:27;;;;;;;2.30;1.33;;;;;;;17.66;73.96;100548.44;4907140;29;20057;-83
2021/10/31 04:30:53;;;;;;;3.20;1.55;;;;;;;17.65;74.16;100544.09;4907150;29;20039;-84
2021/10/31 04:33:18;;;;;;;1.95;1.23;;;;;;;17.65;74.11;100541.47;4891755;29;20013;-83
2021/10/31 04:59:00;;;;;;;1.95;1.30;;;;;;;17.65;73.83;100552.75;5879859;23;20014;-81
2021/10/31 05:01:26;;;;;;;1.95;1.00;;;;;;;17.66;74.00;100553.63;4891245;29;20060;-84
2021/10/31 05:34:53;;;;;;;2.08;1.00;;;;;;;17.67;74.13;100524.97;5293999;23;20057;-78
2021/10/31 05:37:19;;;;;;;1.30;1.00;;;;;;;17.68;74.33;100525.81;4882688;29;20039;-81
2021/10/31 05:39:44;;;;;;;2.45;1.15;;;;;;;17.67;73.86;100516.31;4883998;29;20108;-81
2021/10/31 05:42:09;;;;;;;1.83;1.25;;;;;;;17.66;74.00;100514.59;4885503;29;20442;-82
2021/10/31 05:54:54;;;;;;;1.30;1.00;;;;;;;17.66;73.69;100497.22;4915441;29;20137;-81
2021/10/31 05:57:19;;;;;;;1.95;1.10;;;;;;;17.66;73.91;100499.84;4872352;29;20049;-79
2021/10/31 05:59:45;;;;;;;1.63;1.15;;;;;;;17.65;73.58;100492.03;4905065;29;20068;-80
2021/10/31 06:02:10;;;;;;;1.92;1.10;;;;;;;17.65;73.72;100494.66;4895858;29;20080;-82
2021/10/31 06:04:36;;;;;;;1.58;1.17;;;;;;;17.65;73.95;100492.03;4905132;29;20037;-81
2021/10/31 06:07:01;;;;;;;2.58;1.20;;;;;;;17.65;73.93;100492.91;4921949;29;20065;-81
2021/10/31 06:09:27;;;;;;;1.85;1.20;;;;;;;17.65;73.52;100499.84;4901253;29;20032;-80
2021/10/31 06:11:53;;;;;;;1.25;1.02;;;;;;;17.65;73.72;100489.44;4898165;29;20036;-83
2021/10/31 06:14:19;;;;;;;1.33;1.10;;;;;;;17.63;73.61;100489.47;4901806;29;20028;-80
2021/10/31 06:16:50;;;;;;;2.88;1.27;;;;;;;17.63;73.66;100486.00;4871241;29;20027;-81
2021/10/31 06:19:16;;;;;;;1.77;1.20;;;;;;;17.65;73.60;100492.03;4902028;29;20413;-81
2021/10/31 06:21:41;;;;;;;1.92;1.40;;;;;;;17.61;73.59;100496.41;4904730;29;20084;-79
2021/10/31 06:24:07;;;;;;;3.20;2.25;;;;;;;17.70;73.38;100500.63;4911103;29;20393;-79
2021/10/31 06:26:32;;;;;;;2.85;2.33;;;;;;;17.73;72.29;100494.53;4863658;29;20080;-79
2021/10/31 06:28:57;;;;;;;3.28;2.13;;;;;;;17.76;71.25;100478.88;4913057;29;20051;-79
2021/10/31 06:31:23;;;;;;;3.92;1.85;;;;;;;17.78;70.58;100496.16;4873656;29;20096;-79
2021/10/31 06:33:48;;;;;;;6.18;2.20;;;;;;;17.80;70.13;100480.53;4862226;29;20028;-80
2021/10/31 06:36:13;;;;;;;4.07;2.08;;;;;;;17.82;69.92;100469.25;4876744;29;20032;-79
2021/10/31 06:38:39;;;;;;;2.85;2.10;;;;;;;17.82;69.81;100471.84;4892333;29;20044;-79
2021/10/31 06:41:07;;;;;;;4.63;1.80;;;;;;;17.83;69.42;100470.09;4858453;29;20512;-78
2021/10/31 06:43:34;;;;;;;3.15;1.80;;;;;;;17.85;69.29;100469.19;4871946;29;20033;-79
2021/10/31 06:46:00;;;;;;;5.82;2.17;;;;;;;17.87;69.12;100462.22;4871573;29;20442;-79
2021/10/31 06:48:26;;;;;;;2.70;2.08;;;;;;;17.86;69.07;100463.09;4869572;29;20032;-80
2021/10/31 06:50:53;;;;;;;3.10;1.85;;;;;;;17.90;68.74;100456.13;4874121;29;20040;-80
2021/10/31 06:53:19;;;;;;;2.83;1.90;;;;;;;17.89;68.74;100447.44;4881324;29;20406;-80
2021/10/31 06:55:44;;;;;;;3.20;1.90;;;;;;;17.91;68.65;100452.63;4881433;29;20107;-79
2021/10/31 06:58:10;;;;;;;2.75;1.80;;;;;;;17.92;69.08;100458.69;4867009;29;20364;-81
2021/10/31 07:00:35;;;;;;;3.40;2.13;;;;;;;17.92;68.56;100451.75;4853114;29;20036;-80
2021/10/31 07:03:01;;;;;;;4.10;1.80;;;;;;;17.94;68.38;100456.91;4869865;29;20033;-82
2021/10/31 07:05:27;;;;;;;2.72;2.10;;;;;;;17.94;68.47;100451.69;4887573;29;20438;-81
2021/10/31 07:07:52;;;;;;;2.95;1.90;;;;;;;17.94;68.33;100442.13;4872347;29;20100;-82
2021/10/31 07:10:18;;;;;;;2.92;1.98;;;;;;;17.96;68.21;100440.38;4872967;29;20037;-80
2021/10/31 07:12:43;;;;;;;3.15;2.10;;;;;;;17.97;68.31;100433.44;4892144;29;20035;-79
2021/10/31 07:15:11;;;;;;;6.43;2.05;;;;;;;17.99;68.02;100434.28;4881504;29;20021;-81
2021/10/31 07:17:38;;;;;;;5.55;2.25;;;;;;;18.00;68.11;100430.78;4882773;29;20033;-78
2021/10/31 07:20:05;;;;;;;2.95;1.95;;;;;;;18.00;68.03;100425.56;4881349;29;20041;-79
2021/10/31 07:22:30;;;;;;;3.47;1.73;;;;;;;18.01;67.78;100420.34;4883498;29;20025;-80
2021/10/31 07:24:56;;;;;;;2.63;1.80;;;;;;;18.02;67.92;100423.78;4867356;29;20036;-80
2021/10/31 07:27:22;;;;;;;3.70;2.25;;;;;;;18.01;67.90;100428.16;4870220;29;20064;-80
2021/10/31 07:29:48;;;;;;;2.47;2.08;;;;;;;18.01;67.94;100427.31;4868646;29;20037;-80
2021/10/31 07:32:13;;;;;;;3.75;2.10;;;;;;;18.01;67.83;100416.88;4851317;29;20397;-82
2021/10/31 07:34:39;;;;;;;3.67;2.05;;;;;;;18.01;67.83;100403.88;4869092;29;20447;-80
2021/10/31 07:37:06;;;;;;;6.28;2.40;;;;;;;18.00;67.70;100389.97;4869847;29;20069;-80
2021/10/31 07:39:32;;;;;;;3.80;2.40;;;;;;;18.00;67.84;100392.56;4881070;29;20033;-80
2021/10/31 07:41:58;;;;;;;3.08;2.40;;;;;;;18.01;67.68;100403.88;4853413;29;20041;-82
2021/10/31 07:44:23;;;;;;;2.90;2.30;;;;;;;18.03;67.59;100417.69;4874885;29;20533;-82
2021/10/31 07:46:48;;;;;;;5.15;2.40;;;;;;;18.03;67.81;100426.38;4869691;29;20037;-80
2021/10/31 07:49:14;;;;;;;4.80;2.58;;;;;;;18.05;67.59;100428.94;4869252;29;20033;-79
2021/10/31 07:51:39;;;;;;;2.90;2.35;;;;;;;18.06;67.62;100422.84;4881447;29;20033;-79
2021/10/31 07:54:08;;;;;;;6.03;2.80;;;;;;;18.07;67.55;100427.16;4882829;29;20053;-85
2021/10/31 07:56:36;;;;;;;4.05;2.65;;;;;;;18.08;67.48;100415.88;4879478;29;20068;-84
2021/10/31 07:59:01;;;;;;;4.72;2.80;;;;;;;18.08;67.34;100408.91;4865404;29;20072;-83
2021/10/31 08:01:27;;;;;;;4.18;2.50;;;;;;;18.09;67.45;100413.25;4864108;29;20058;-88
2021/10/31 08:03:53;;;;;;;3.63;2.65;;;;;;;18.10;67.55;100406.28;4864305;29;20065;-87
2021/10/31 08:06:23;;;;;;;4.60;2.88;;;;;;;18.10;67.37;100403.69;4864495;29;20595;-87
2021/10/31 08:08:52;;;;;;;3.50;2.65;;;;;;;18.09;67.28;100399.34;4863501;29;20025;-85
2021/10/31 08:11:20;;;;;;;5.07;2.75;;;;;;;18.10;67.40;100401.09;4864171;29;20036;-89
2021/10/31 08:13:56;;;;;;;6.85;4.38;;;;;;;18.05;66.37;100397.69;4849461;29;20044;-90
2021/10/31 08:16:24;;;;;;;5.72;3.30;;;;;;;18.01;67.03;100385.66;4865381;29;20065;-89
2021/10/31 08:18:52;;;;;;;6.25;3.35;;;;;;;18.02;67.26;100388.19;4881521;29;20036;-90
2021/10/31 08:21:33;;;;;;;11.30;5.32;;;;;;;18.05;66.81;100376.84;4849494;29;20040;-91
2021/10/31 08:24:01;;;;;;;18.35;6.90;;;;;;;18.07;66.74;100372.47;4865622;29;20041;-78
2021/10/31 08:26:26;;;;;;;21.38;6.47;;;;;;;18.09;66.57;100360.28;4881182;29;20035;-84
2021/10/31 08:28:53;;;;;;;18.45;6.65;;;;;;;18.11;66.59;100363.72;4865312;29;20116;-83
2021/10/31 08:31:28;;;;;;;19.80;6.78;;;;;;;18.13;66.49;100361.09;4882198;29;20028;-85
2021/10/31 08:34:01;;;;;;;15.25;6.50;;;;;;;18.16;66.71;100355.81;4888865;29;20132;-84
2021/10/31 08:36:29;;;;;;;22.00;6.97;;;;;;;18.17;66.64;100357.56;4880088;29;20028;-85
2021/10/31 08:39:01;;;;;;;14.50;6.22;;;;;;;18.17;66.63;100355.81;4879363;29;20060;-86
2021/10/31 08:41:28;;;;;;;13.52;5.90;;;;;;;18.20;66.96;100344.47;4864545;29;20127;-82
2021/10/31 08:44:06;;;;;;;13.27;6.32;;;;;;;18.19;66.81;100329.75;4881636;29;20057;-84
2021/10/31 08:46:34;;;;;;;13.25;6.00;;;;;;;18.19;66.82;100330.59;4866757;29;20041;-84
2021/10/31 08:49:03;;;;;;;12.02;6.25;;;;;;;18.20;67.07;100319.28;4879411;29;20143;-84
2021/10/31 08:51:35;;;;;;;12.30;5.55;;;;;;;18.23;66.89;100311.41;4863658;29;20033;-85
2021/10/31 08:54:15;;;;;;;11.88;5.45;;;;;;;18.26;67.03;100313.94;4878893;29;20073;-91
2021/10/31 08:56:40;;;;;;;11.40;5.75;;;;;;;18.25;66.88;100322.66;4881961;29;20028;-91
2021/10/31 08:59:09;;;;;;;11.43;5.78;;;;;;;18.24;66.94;100320.06;4866178;29;20120;-89
2021/10/31 09:01:35;;;;;;;11.43;5.20;;;;;;;18.24;67.06;100317.47;4880688;29;20029;-91
2021/10/31 09:04:03;;;;;;;15.65;6.00;;;;;;;18.23;67.30;100307.97;4864642;29;20414;-85
2021/10/31 09:06:31;;;;;;;15.40;5.30;;;;;;;18.23;66.96;100293.19;4879081;29;20021;-87
2021/10/31 09:08:59;;;;;;;11.18;5.25;;;;;;;18.24;67.01;100291.44;4878827;29;20029;-85
2021/10/31 09:11:25;;;;;;;12.70;5.43;;;;;;;18.23;66.94;100293.19;4863598;29;20029;-86
2021/10/31 09:13:52;;;;;;;10.20;5.00;;;;;;;18.23;66.91;100292.34;4863197;29;20029;-84
2021/10/31 09:16:17;;;;;;;10.95;5.22;;;;;;;18.22;67.12;100295.81;4863616;29;20033;-86
2021/10/31 09:18:53;;;;;;;12.15;5.57;;;;;;;18.22;66.90;100294.06;4863256;29;20036;-85
2021/10/31 09:21:23;;;;;;;11.90;4.93;;;;;;;18.20;67.02;100277.59;4881296;29;20032;-84
2021/10/31 09:23:51;;;;;;;9.00;4.90;;;;;;;18.19;67.03;100267.25;4882512;29;20111;-85
2021/10/31 09:26:22;;;;;;;9.07;4.93;;;;;;;18.17;66.89;100264.66;4882381;29;20040;-86
2021/10/31 09:28:56;;;;;;;8.50;4.70;;;;;;;18.18;66.95;100273.31;4863634;29;20048;-86
2021/10/31 09:31:21;;;;;;;10.95;4.95;;;;;;;18.17;66.96;100259.44;4866833;29;20055;-85
2021/10/31 09:33:47;;;;;;;8.90;5.30;;;;;;;18.18;66.77;100263.78;4882186;29;20478;-85
2021/10/31 09:36:15;;;;;;;7.57;4.97;;;;;;;18.19;66.89;100251.63;4851320;29;20490;-84
2021/10/31 09:38:41;;;;;;;8.80;5.25;;;;;;;18.19;66.79;100236.84;4851341;29;20041;-86
2021/10/31 09:41:16;;;;;;;8.40;4.82;;;;;;;18.19;66.65;100231.63;4881913;29;20032;-84
2021/10/31 09:43:50;;;;;;;8.85;4.75;;;;;;;18.19;66.75;100223.81;4866338;29;20135;-86
2021/10/31 09:46:15;;;;;;;9.93;5.10;;;;;;;18.17;66.76;100223.00;4882041;29;20371;-85
2021/10/31 09:48:47;;;;;;;8.15;4.90;;;;;;;18.18;66.79;100222.13;4866495;29;20052;-85
2021/10/31 09:51:15;;;;;;;9.32;4.68;;;;;;;18.18;66.88;100221.25;4881884;29;20041;-86
2021/10/31 09:53:44;;;;;;;7.22;4.30;;;;;;;18.18;66.95;100218.63;4865822;29;20049;-84
2021/10/31 09:56:10;;;;;;;11.05;4.57;;;;;;;18.15;66.89;100203.94;4866341;29;20127;-87
2021/10/31 09:58:38;;;;;;;6.97;4.20;;;;;;;18.15;66.99;100201.34;4866370;29;20446;-86
2021/10/31 10:01:50;;;;;;;8.65;4.53;;;;;;;18.14;67.07;100189.22;4867102;29;20188;-84
2021/10/31 10:04:53;;;;;;;7.05;4.10;;;;;;;18.13;66.75;100179.69;4881663;29;20035;-86
2021/10/31 10:07:23;;;;;;;9.85;4.13;;;;;;;18.14;66.71;100175.31;4881662;29;20029;-85
2021/10/31 10:10:00;;;;;;;7.85;4.30;;;;;;;18.14;66.62;100165.78;4866377;29;20183;-86
2021/10/31 10:12:30;;;;;;;8.20;4.20;;;;;;;18.15;66.75;100158.81;4881573;29;20069;-85
2021/10/31 10:15:10;;;;;;;6.15;3.95;;;;;;;18.15;66.60;100162.28;4881570;29;20490;-86
2021/10/31 10:17:52;;;;;;;6.85;4.05;;;;;;;18.16;66.83;100160.53;4882554;29;20089;-86
2021/10/31 10:20:20;;;;;;;7.80;4.28;;;;;;;18.14;66.65;100157.97;4883111;29;20104;-84
2021/10/31 10:23:09;;;;;;;6.32;3.65;;;;;;;18.14;66.61;100159.69;4866260;29;20386;-86
2021/10/31 10:25:43;;;;;;;7.70;3.95;;;;;;;18.14;66.39;100152.75;4866382;29;20029;-86
2021/10/31 10:28:25;;;;;;;7.00;4.00;;;;;;;18.16;66.57;100147.50;4882638;29;20029;-85
2021/10/31 10:30:52;;;;;;;6.10;3.88;;;;;;;18.16;66.46;100147.50;4881229;29;20378;-85
2021/10/31 10:33:23;;;;;;;9.73;4.13;;;;;;;18.17;66.52;100151.84;4865155;29;20398;-86
2021/10/31 10:35:58;;;;;;;5.75;3.72;;;;;;;18.19;66.43;100144.84;4881211;29;20035;-86
2021/10/31 10:38:23;;;;;;;5.45;3.60;;;;;;;18.18;66.45;100138.78;4882567;29;20025;-86
2021/10/31 10:40:49;;;;;;;6.18;3.90;;;;;;;18.20;66.68;100134.38;4882335;29;20090;-87
2021/10/31 10:43:14;;;;;;;8.95;3.80;;;;;;;18.20;66.59;100129.16;4850388;29;20115;-86
2021/10/31 10:45:46;;;;;;;6.78;4.30;;;;;;;18.22;66.59;100131.75;4865921;29;20599;-86
2021/10/31 10:48:19;;;;;;;6.68;4.40;;;;;;;18.23;66.64;100129.09;4866520;29;20065;-86
2021/10/31 10:50:45;;;;;;;7.35;4.10;;;;;;;18.22;66.43;100116.13;4867048;29;20037;-83
2021/10/31 10:53:19;;;;;;;7.30;4.10;;;;;;;18.22;66.22;100109.16;4886602;29;20166;-84
2021/10/31 10:55:50;;;;;;;5.75;3.38;;;;;;;18.22;66.38;100097.88;4874640;29;20059;-85
2021/10/31 10:58:19;;;;;;;5.50;3.75;;;;;;;18.23;66.49;100089.19;4903182;29;20029;-85
2021/10/31 11:00:49;;;;;;;6.25;3.35;;;;;;;18.20;66.40;100082.28;4885632;29;20044;-90
2021/10/31 11:03:28;;;;;;;5.32;3.95;;;;;;;18.18;66.61;100065.88;4883025;29;20033;-90
2021/10/31 11:06:05;;;;;;;5.15;3.30;;;;;;;18.19;66.25;100071.94;4892509;29;20035;-91
2021/10/31 11:08:38;;;;;;;6.68;3.45;;;;;;;18.16;66.62;100062.44;4886328;29;20028;-90
2021/10/31 11:11:15;;;;;;;6.25;3.60;;;;;;;18.16;66.30;100056.34;4885953;29;20129;-92
2021/10/31 11:14:02;;;;;;;5.70;3.45;;;;;;;18.16;66.50;100045.94;4884966;29;20028;-92
2021/10/31 11:16:30;;;;;;;5.00;3.25;;;;;;;18.14;66.51;100053.81;4873321;29;20025;-91
2021/10/31 11:18:56;;;;;;;6.38;3.83;;;;;;;18.15;66.62;100062.47;4887941;29;20057;-93
2021/10/31 11:21:22;;;;;;;6.13;3.53;;;;;;;18.16;66.30;100065.06;4887152;29;20028;-92
2021/10/31 11:23:52;;;;;;;4.82;3.20;;;;;;;18.17;66.22;100055.47;4886259;29;20029;-89
2021/10/31 11:26:24;;;;;;;6.13;3.30;;;;;;;18.17;66.36;100061.53;4885152;29;20084;-89
2021/10/31 11:28:53;;;;;;;6.57;3.40;;;;;;;18.19;66.42;100053.69;4885350;29;20119;-93
2021/10/31 11:31:20;;;;;;;5.80;3.05;;;;;;;18.19;66.52;100051.94;4886474;29;20029;-91
2021/10/31 11:33:57;;;;;;;9.00;3.28;;;;;;;18.20;66.34;100048.44;4884903;29;20486;-90
2021/10/31 11:36:30;;;;;;;6.07;3.38;;;;;;;18.22;66.39;100045.78;4884896;29;20029;-91
2021/10/31 11:38:59;;;;;;;5.28;3.47;;;;;;;18.23;66.45;100037.09;4869026;29;20042;-92
2021/10/31 11:41:30;;;;;;;6.45;3.30;;;;;;;18.24;66.49;100038.81;4886726;29;20032;-91
2021/10/31 11:44:00;;;;;;;5.97;2.97;;;;;;;18.23;66.69;100035.34;4888147;29;20029;-91
2021/10/31 11:46:46;;;;;;;5.35;3.05;;;;;;;18.23;66.40;100022.34;4878693;29;20065;-93
2021/10/31 11:49:12;;;;;;;5.65;3.03;;;;;;;18.24;66.61;100013.59;4890289;29;20036;-87
2021/10/31 11:51:42;;;;;;;4.70;3.03;;;;;;;18.24;66.46;100003.19;4876844;29;20040;-93
2021/10/31 11:54:09;;;;;;;5.20;2.90;;;;;;;18.26;66.42;99992.75;4896034;29;20056;-92
2021/10/31 11:57:15;;;;;;;5.45;3.03;;;;;;;18.27;66.60;99990.13;4885469;29;20486;-91
2021/10/31 11:59:40;;;;;;;8.98;2.78;;;;;;;18.33;66.61;99993.44;4884231;29;20036;-90
2021/10/31 12:02:36;;;;;;;7.10;2.85;;;;;;;18.32;66.69;99981.31;4852785;29;20025;-89
2021/10/31 12:05:15;;;;;;;7.53;2.67;;;;;;;18.27;66.90;99966.69;4867926;29;20473;-89
2021/10/31 12:07:43;;;;;;;9.27;2.80;;;;;;;18.26;66.77;99969.31;4883058;29;20037;-89
2021/10/31 12:10:50;;;;;;;5.47;3.00;;;;;;;18.25;66.67;99952.84;4883494;29;20119;-90
2021/10/31 12:13:18;;;;;;;6.05;2.90;;;;;;;18.24;67.03;99945.91;4838292;29;20036;-92
2021/10/31 12:16:15;;;;;;;4.78;2.75;;;;;;;18.24;66.82;99926.81;4883983;29;20470;-87
2021/10/31 12:19:11;;;;;;;9.20;2.90;;;;;;;18.25;66.89;99915.53;4885069;29;20033;-90
2021/10/31 12:21:38;;;;;;;6.38;2.78;;;;;;;18.25;66.84;99905.13;4866456;29;20044;-90
2021/10/31 12:24:15;;;;;;;4.65;2.55;;;;;;;18.25;67.03;99887.72;4883427;29;20496;-89
2021/10/31 12:26:43;;;;;;;5.63;2.70;;;;;;;18.25;67.10;99873.84;4883510;29;20032;-89
2021/10/31 12:29:13;;;;;;;6.80;2.55;;;;;;;18.24;67.13;99859.13;4883216;29;20039;-90
2021/10/31 12:31:50;;;;;;;5.75;2.70;;;;;;;18.23;67.21;99844.41;4884030;29;20028;-91
2021/10/31 12:34:22;;;;;;;6.90;2.58;;;;;;;18.20;67.16;99834.91;4883261;29;20483;-89
2021/10/31 12:36:54;;;;;;;5.68;2.90;;;;;;;18.20;67.39;99870.50;4882333;29;20511;-89
2021/10/31 12:39:30;;;;;;;6.90;3.00;;;;;;;18.20;67.12;99892.19;4884181;29;20036;-89
2021/10/31 12:42:29;;;;;;;7.78;2.72;;;;;;;18.19;67.41;99866.22;4888468;29;20040;-89
2021/10/31 12:44:58;;;;;;;5.90;2.55;;;;;;;18.19;67.39;99858.41;4887907;29;20032;-90
2021/10/31 12:47:35;;;;;;;4.53;2.53;;;;;;;18.19;67.31;99845.38;4885280;29;20056;-90
2021/10/31 12:50:19;;;;;;;5.13;2.60;;;;;;;18.19;67.13;99848.84;4882761;29;20032;-88
2021/10/31 12:52:57;;;;;;;5.32;2.53;;;;;;;18.19;67.29;99828.00;4883161;29;20032;-88
2021/10/31 12:55:30;;;;;;;5.68;2.53;;;;;;;18.18;67.50;99817.63;4878988;29;20056;-89
2021/10/31 12:58:01;;;;;;;5.30;2.30;;;;;;;18.22;67.19;99811.44;4879963;29;20041;-93
2021/10/31 13:00:30;;;;;;;4.82;2.35;;;;;;;18.21;67.46;99794.13;4878861;29;20036;-82
2021/10/31 13:02:57;;;;;;;6.18;2.30;;;;;;;18.22;67.37;99790.59;4878880;29;20040;-82
2021/10/31 13:05:33;;;;;;;3.63;2.50;;;;;;;18.21;67.24;99784.53;4864038;29;20044;-89
2021/10/31 13:08:00;;;;;;;8.30;2.55;;;;;;;18.20;67.31;99792.38;4880893;29;20039;-91
2021/10/31 13:10:39;;;;;;;4.90;2.22;;;;;;;18.19;67.34;99788.94;4880787;29;20033;-93
2021/10/31 13:13:08;;;;;;;4.18;2.30;;;;;;;18.19;67.65;99781.13;4889120;29;20036;-95
2021/10/31 13:15:40;;;;;;;4.05;2.33;;;;;;;18.19;67.55;99767.25;4895231;29;20033;-91
2021/10/31 13:28:50;;;;;;;5.30;2.35;;;;;;;18.16;68.04;99765.59;5104468;27;20406;-89
2021/10/31 13:31:24;;;;;;;5.85;2.45;;;;;;;18.17;68.07;99772.50;5062180;28;20091;-89
2021/10/31 13:34:00;;;;;;;3.42;2.00;;;;;;;18.17;67.95;99769.91;5057816;28;20024;-91
2021/10/31 13:36:33;;;;;;;4.22;2.30;;;;;;;18.17;68.13;99756.03;5056549;28;20037;-90
2021/10/31 13:39:04;;;;;;;5.78;2.13;;;;;;;18.16;68.23;99759.53;5057590;28;20062;-91
2021/10/31 13:41:32;;;;;;;3.15;1.90;;;;;;;18.16;68.08;99734.34;5055023;28;20032;-90
2021/10/31 13:44:00;;;;;;;3.53;2.20;;;;;;;18.16;68.30;99733.47;5055866;28;20024;-89
2021/10/31 13:46:31;;;;;;;4.05;2.00;;;;;;;18.15;68.15;99724.81;5053419;28;20024;-79
2021/10/31 13:49:00;;;;;;;2.70;1.80;;;;;;;18.16;68.23;99725.66;5052594;28;20476;-78
2021/10/31 13:51:27;;;;;;;3.90;2.10;;;;;;;18.15;68.43;99711.81;5051456;28;20032;-78
2021/10/31 13:53:54;;;;;;;3.72;2.00;;;;;;;18.15;68.36;99683.16;5052356;28;20130;-79
2021/10/31 13:56:20;;;;;;;2.65;1.90;;;;;;;18.14;68.27;99688.41;5035740;28;20024;-79
2021/10/31 13:58:49;;;;;;;4.00;2.00;;;;;;;18.14;68.50;99678.88;5052318;28;20027;-78
2021/10/31 14:01:36;;;;;;;2.97;2.00;;;;;;;18.14;68.44;99678.88;5035536;28;20048;-79
2021/10/31 14:04:21;;;;;;;3.50;2.25;;;;;;;18.14;68.51;99660.66;5052292;28;20017;-79
2021/10/31 14:06:49;;;;;;;3.47;1.77;;;;;;;18.14;68.58;99637.22;5052148;28;20116;-78
2021/10/31 14:09:20;;;;;;;2.75;2.10;;;;;;;18.15;68.55;99636.31;5051513;28;20040;-78
2021/10/31 14:11:55;;;;;;;3.20;2.00;;;;;;;18.15;68.64;99653.69;5035306;28;20039;-77
2021/10/31 14:14:53;;;;;;;3.58;1.90;;;;;;;18.14;68.52;99636.34;5051889;28;20028;-78
2021/10/31 14:17:21;;;;;;;3.47;1.73;;;;;;;18.13;68.70;99625.09;5039292;28;20482;-81
2021/10/31 14:19:51;;;;;;;3.17;2.08;;;;;;;18.13;68.54;99617.28;5050052;28;20044;-79
2021/10/31 14:22:20;;;;;;;2.90;1.80;;;;;;;18.14;68.85;99608.56;5031943;28;20029;-79
2021/10/31 14:24:58;;;;;;;3.22;1.98;;;;;;;18.14;68.77;99595.56;5031935;28;20029;-79
2021/10/31 14:27:27;;;;;;;4.35;1.98;;;;;;;18.14;68.75;99597.28;5022937;28;20041;-78
2021/10/31 14:29:53;;;;;;;4.93;1.85;;;;;;;18.13;68.67;99582.56;4983496;28;20030;-89
2021/10/31 14:32:19;;;;;;;4.20;1.85;;;;;;;18.14;68.84;99585.16;4983758;28;20026;-89